KJER Airport (Jerome County) Information

FAA: JER - ICAO: KJER

KJER Airport Location

State Idaho
County Jerome
City Jerome
KJER Airport is 3 miles east of Jerome, ID.
Latitude 42-43-36.1000N
Longitude 114-27-23.9000W
Elevation 4,053ft

KJER Airport METARs

METAR KJER 251553Z AUTO 23007KT 7SM -RA FEW006 OVC037 07/06 A2966 RMK AO2 SLP036 P0005 T00720061
Altimeter 29.66"
Temperature 7.2°C (45.0°F)
Wind 230° at 7KT
Clouds few at 600ft overcast at 3,700ft
Visibility 7.0mi
Time observed: 2021-10-25T15:53:00Z

KJER Airport Details

Status Operational
Activation May 1941
Ownership Public
Usage Public
Chart SALT LAKE CITY
ATC on-site No
Beacon schedule sunset-sunrise
Beacon color clear green

KJER Airport Contacts

Owner JEROME COUNTY
Owner address 300 N LINCOLN RM 300, JEROME, ID 83338
Owner phone 208-644-2704
Manager TOM SIMKO
Manager address 245 N. BONNEVILLE ROAD, INKOM, ID 83245
Manager phone 208-716-0400

KJER Airport (Jerome County) Radio Frequencies

KJER (Airport) Radio Frequencies

UNICOM 122.8
Common traffic advisory frequency (CTAF) 122.8